createdAt,value
2023-04-23T00:00:23.430Z,5.65
2023-04-23T00:02:53.361Z,5.85
2023-04-23T00:05:20.510Z,6.65
2023-04-23T00:07:47.267Z,6.35
2023-04-23T00:10:13.909Z,6.38
2023-04-23T00:12:41.021Z,6.10
2023-04-23T00:15:08.100Z,6.40
2023-04-23T00:17:34.591Z,6.40
2023-04-23T00:20:01.022Z,6.60
2023-04-23T00:22:27.648Z,6.18
2023-04-23T00:24:54.093Z,6.22
2023-04-23T00:27:21.357Z,6.15
2023-04-23T00:29:48.079Z,5.97
2023-04-23T00:32:15.089Z,6.38
2023-04-23T00:34:41.642Z,6.32
2023-04-23T00:37:08.439Z,6.85
2023-04-23T00:39:35.902Z,6.85
2023-04-23T00:42:07.077Z,6.28
2023-04-23T00:44:33.869Z,6.40
2023-04-23T00:47:00.670Z,6.90
2023-04-23T00:49:27.770Z,6.40
2023-04-23T00:51:54.139Z,6.40
2023-04-23T00:54:20.543Z,6.55
2023-04-23T00:56:47.514Z,6.13
2023-04-23T00:59:14.528Z,6.18
2023-04-23T01:01:41.351Z,6.43
2023-04-23T01:04:09.537Z,6.95
2023-04-23T01:06:36.324Z,6.78
2023-04-23T01:09:03.642Z,6.25
2023-04-23T01:11:30.428Z,6.50
2023-04-23T01:13:57.176Z,6.38
2023-04-23T01:16:23.592Z,6.53
2023-04-23T01:18:50.037Z,6.28
2023-04-23T01:21:17.240Z,6.90
2023-04-23T01:23:43.700Z,6.57
2023-04-23T01:26:10.871Z,6.20
2023-04-23T01:28:37.402Z,6.10
2023-04-23T01:31:04.199Z,6.30
2023-04-23T01:33:31.705Z,6.70
2023-04-23T01:35:58.791Z,6.50
2023-04-23T01:38:26.071Z,7.57
2023-04-23T01:40:52.443Z,6.97
2023-04-23T01:43:19.051Z,7.50
2023-04-23T01:45:45.720Z,6.63
2023-04-23T01:48:12.310Z,6.50
2023-04-23T01:50:39.164Z,6.82
2023-04-23T01:53:05.665Z,7.20
2023-04-23T01:55:34.817Z,6.90
2023-04-23T01:58:01.211Z,7.20
2023-04-23T02:00:27.843Z,6.85
2023-04-23T02:02:54.391Z,6.95
2023-04-23T02:05:21.428Z,6.80
2023-04-23T02:07:49.929Z,6.85
2023-04-23T02:10:16.757Z,6.57
2023-04-23T02:12:43.719Z,6.45
2023-04-23T02:15:11.136Z,6.82
2023-04-23T02:17:39.905Z,7.03
2023-04-23T02:20:09.725Z,6.68
2023-04-23T02:22:38.032Z,7.45
2023-04-23T02:25:06.914Z,7.57
2023-04-23T02:27:33.438Z,7.50
2023-04-23T02:30:00.150Z,7.40
2023-04-23T02:32:28.044Z,8.13
2023-04-23T02:34:55.168Z,7.95
2023-04-23T02:37:21.544Z,8.30
2023-04-23T02:39:47.943Z,7.97
2023-04-23T02:42:14.620Z,7.57
2023-04-23T02:44:41.428Z,8.68
2023-04-23T02:47:08.094Z,7.97
2023-04-23T02:49:34.500Z,9.65
2023-04-23T02:52:00.932Z,9.48
2023-04-23T02:54:27.418Z,9.00
2023-04-23T02:56:53.863Z,9.98
2023-04-23T02:59:20.456Z,9.13
2023-04-23T03:01:46.921Z,11.05
2023-04-23T03:04:13.484Z,10.10
2023-04-23T03:06:40.010Z,10.05
2023-04-23T03:09:06.667Z,10.30
2023-04-23T03:11:33.902Z,9.40
2023-04-23T03:14:00.421Z,8.63
2023-04-23T03:16:28.509Z,10.57
2023-04-23T03:18:55.543Z,11.00
2023-04-23T03:21:21.992Z,10.25
2023-04-23T03:23:48.433Z,10.23
2023-04-23T03:26:14.888Z,9.60
2023-04-23T03:28:41.496Z,11.00
2023-04-23T03:31:08.143Z,11.57
2023-04-23T03:33:34.820Z,9.80
2023-04-23T03:36:01.266Z,10.93
2023-04-23T03:38:27.832Z,11.20
2023-04-23T03:40:54.752Z,11.02
2023-04-23T03:43:21.177Z,11.02
2023-04-23T03:45:47.596Z,11.00
2023-04-23T03:48:14.024Z,10.93
2023-04-23T03:50:40.809Z,11.20
2023-04-23T03:53:08.199Z,10.57
2023-04-23T03:55:34.638Z,10.40
2023-04-23T03:58:01.815Z,10.95
2023-04-23T04:00:28.319Z,10.48
2023-04-23T04:02:55.098Z,10.27
2023-04-23T04:05:23.040Z,10.80
2023-04-23T04:07:49.521Z,11.15
2023-04-23T04:10:15.945Z,13.30
2023-04-23T04:12:42.391Z,14.25
2023-04-23T04:15:09.247Z,15.35
2023-04-23T04:17:35.708Z,17.33
2023-04-23T04:20:02.203Z,19.48
2023-04-23T04:22:29.460Z,17.73
2023-04-23T04:24:57.435Z,19.50
2023-04-23T04:27:23.951Z,18.23
2023-04-23T04:29:51.838Z,19.20
2023-04-23T04:32:19.121Z,20.45
2023-04-23T04:34:45.586Z,20.48
2023-04-23T04:37:12.920Z,18.92
2023-04-23T04:39:39.979Z,20.25
2023-04-23T04:42:07.368Z,22.45
2023-04-23T04:44:34.522Z,24.42
2023-04-23T04:47:01.678Z,19.30
2023-04-23T04:49:28.392Z,19.35
2023-04-23T04:51:54.870Z,24.15
2023-04-23T04:54:22.001Z,20.25
2023-04-23T04:56:48.514Z,22.33
2023-04-23T04:59:21.048Z,22.50
2023-04-23T05:01:48.220Z,19.25
2023-04-23T05:04:14.909Z,21.35
2023-04-23T05:06:41.544Z,20.77
2023-04-23T05:09:08.458Z,21.55
2023-04-23T05:11:36.116Z,19.05
2023-04-23T05:14:04.338Z,20.92
2023-04-23T05:16:30.976Z,19.83
2023-04-23T05:18:57.781Z,24.65
2023-04-23T05:21:24.283Z,18.17
2023-04-23T05:23:50.861Z,21.08
2023-04-23T05:26:18.295Z,17.42
2023-04-23T05:28:44.823Z,16.85
2023-04-23T05:31:11.490Z,16.42
2023-04-23T05:33:49.087Z,16.77
2023-04-23T05:36:19.559Z,16.52
2023-04-23T05:38:46.939Z,16.90
2023-04-23T05:41:13.492Z,16.50
2023-04-23T05:43:40.000Z,15.35
2023-04-23T05:46:07.900Z,15.52
2023-04-23T05:48:35.511Z,14.00
2023-04-23T05:51:02.194Z,13.57
2023-04-23T05:53:30.807Z,12.68
2023-04-23T05:55:57.398Z,12.10
2023-04-23T05:58:23.817Z,10.80
2023-04-23T06:00:50.389Z,10.15
2023-04-23T06:03:17.233Z,10.10
2023-04-23T06:05:44.056Z,9.13
2023-04-23T06:08:11.835Z,8.90
2023-04-23T06:10:38.496Z,9.45
2023-04-23T06:13:04.959Z,7.97
2023-04-23T06:15:31.669Z,8.27
2023-04-23T06:17:58.235Z,8.10
2023-04-23T06:20:25.538Z,7.97
2023-04-23T06:22:52.040Z,7.70
2023-04-23T06:25:18.651Z,6.82
2023-04-23T06:27:45.100Z,7.10
2023-04-23T06:30:11.999Z,7.20
2023-04-23T06:32:38.559Z,7.30
2023-04-23T06:35:06.970Z,6.60
2023-04-23T06:37:33.987Z,6.72
2023-04-23T06:40:00.611Z,7.00
2023-04-23T06:42:27.417Z,6.95
2023-04-23T06:44:54.167Z,6.38
2023-04-23T06:47:20.645Z,5.85
2023-04-23T06:49:47.169Z,5.90
2023-04-23T06:52:13.711Z,6.03
2023-04-23T06:54:40.450Z,5.95
2023-04-23T06:57:07.117Z,11.95
2023-04-23T06:59:33.568Z,6.95
2023-04-23T07:02:00.401Z,6.18
2023-04-23T07:04:26.928Z,6.40
2023-04-23T07:06:53.379Z,6.32
2023-04-23T07:09:19.931Z,5.93
2023-04-23T07:11:46.504Z,5.80
2023-04-23T07:14:12.897Z,5.72
2023-04-23T07:16:39.390Z,5.63
2023-04-23T07:19:05.935Z,5.50
2023-04-23T07:21:33.102Z,5.25
2023-04-23T07:24:00.749Z,5.20
2023-04-23T07:26:29.693Z,5.70
2023-04-23T07:28:56.205Z,5.40
2023-04-23T07:31:23.845Z,5.20
2023-04-23T07:33:50.334Z,5.32
2023-04-23T07:36:16.885Z,5.50
2023-04-23T07:38:43.311Z,5.28
2023-04-23T07:41:09.830Z,4.88
2023-04-23T07:43:36.245Z,5.30
2023-04-23T07:46:02.819Z,5.47
2023-04-23T07:48:29.348Z,5.20
2023-04-23T07:50:56.588Z,5.25
2023-04-23T07:53:23.081Z,5.18
2023-04-23T07:55:49.558Z,5.38
2023-04-23T07:58:15.926Z,5.68
2023-04-23T08:00:42.362Z,5.43
2023-04-23T08:03:08.898Z,5.47
2023-04-23T08:05:37.277Z,5.43
2023-04-23T08:08:03.798Z,5.57
2023-04-23T08:10:30.242Z,5.78
2023-04-23T08:12:56.624Z,6.10
2023-04-23T08:15:23.170Z,5.90
2023-04-23T08:17:49.594Z,5.65
2023-04-23T08:20:16.041Z,5.50
2023-04-23T08:22:42.464Z,5.72
2023-04-23T08:25:09.510Z,5.38
2023-04-23T08:27:36.053Z,5.55
2023-04-23T08:30:02.525Z,4.95
2023-04-23T08:32:29.322Z,5.25
2023-04-23T08:34:55.764Z,5.50
2023-04-23T08:37:30.152Z,5.10
2023-04-23T08:39:57.138Z,5.15
2023-04-23T08:42:34.829Z,5.63
2023-04-23T08:45:03.960Z,5.60
2023-04-23T08:47:32.287Z,6.03
2023-04-23T08:49:59.406Z,5.50
2023-04-23T08:52:28.692Z,5.97
2023-04-23T08:55:00.202Z,5.68
2023-04-23T08:57:27.426Z,5.88
2023-04-23T08:59:55.300Z,5.85
2023-04-23T09:02:22.861Z,6.07
2023-04-23T09:04:51.426Z,6.13
2023-04-23T09:07:19.176Z,6.13
2023-04-23T09:09:45.631Z,5.63
2023-04-23T09:12:12.096Z,6.00
2023-04-23T09:14:38.512Z,5.60
2023-04-23T09:17:05.654Z,5.68
2023-04-23T09:19:32.482Z,5.40
2023-04-23T09:22:02.074Z,5.65
2023-04-23T09:24:28.646Z,5.80
2023-04-23T09:26:55.117Z,5.30
2023-04-23T09:29:23.464Z,5.15
2023-04-23T09:31:56.343Z,5.28
2023-04-23T09:34:24.654Z,5.82
2023-04-23T09:36:52.806Z,5.45
2023-04-23T09:39:22.299Z,4.90
2023-04-23T09:41:51.029Z,5.03
2023-04-23T09:44:19.443Z,4.88
2023-04-23T09:46:46.161Z,5.25
2023-04-23T09:49:14.826Z,5.05
2023-04-23T09:51:44.478Z,5.63
2023-04-23T09:54:15.499Z,5.38
2023-04-23T09:56:43.552Z,5.85
2023-04-23T09:59:24.647Z,5.60
2023-04-23T10:01:56.281Z,5.38
2023-04-23T10:04:26.276Z,5.47
2023-04-23T10:07:13.856Z,5.57
2023-04-23T10:09:44.289Z,5.82
2023-04-23T10:12:27.755Z,5.60
2023-04-23T10:14:59.702Z,5.60
2023-04-23T10:17:26.577Z,5.80
2023-04-23T10:19:54.356Z,5.55
2023-04-23T10:22:21.857Z,5.72
2023-04-23T10:24:53.096Z,6.15
2023-04-23T10:29:56.330Z,6.40
2023-04-23T10:32:23.933Z,6.13
2023-04-23T10:34:51.140Z,6.82
2023-04-23T10:37:21.150Z,6.13
2023-04-23T10:39:51.018Z,6.40
2023-04-23T10:42:18.040Z,6.40
2023-04-23T10:44:57.863Z,6.35
2023-04-23T10:47:27.472Z,6.07
2023-04-23T10:49:53.904Z,5.65
2023-04-23T10:52:23.765Z,5.93
2023-04-23T10:55:00.150Z,5.50
2023-04-23T10:57:26.917Z,5.20
2023-04-23T10:59:56.396Z,5.22
2023-04-23T11:02:24.735Z,4.75
2023-04-23T11:04:59.361Z,5.03
2023-04-23T11:07:31.107Z,5.15
2023-04-23T11:09:59.697Z,5.15
2023-04-23T11:12:26.979Z,5.03
2023-04-23T11:14:55.052Z,5.10
2023-04-23T11:17:33.765Z,5.10
2023-04-23T11:20:13.296Z,5.13
2023-04-23T11:22:42.495Z,5.25
2023-04-23T11:25:14.139Z,5.20
2023-04-23T11:27:44.173Z,5.47
2023-04-23T11:30:15.645Z,5.47
2023-04-23T11:32:50.395Z,5.75
2023-04-23T11:35:18.484Z,5.80
2023-04-23T11:37:46.573Z,5.38
2023-04-23T11:40:18.752Z,5.50
2023-04-23T11:42:47.411Z,5.88
2023-04-23T11:45:20.448Z,5.85
2023-04-23T11:47:48.756Z,6.57
2023-04-23T11:50:25.876Z,5.82
2023-04-23T11:52:53.074Z,6.43
2023-04-23T11:55:20.264Z,6.03
2023-04-23T11:57:49.234Z,6.20
2023-04-23T12:00:16.317Z,5.80
2023-04-23T12:02:57.968Z,6.18
2023-04-23T12:05:36.813Z,5.97
2023-04-23T12:08:17.284Z,6.60
2023-04-23T12:10:50.514Z,6.50
2023-04-23T12:13:19.131Z,7.15
2023-04-23T12:15:50.921Z,7.00
2023-04-23T12:18:18.167Z,6.80
2023-04-23T12:20:45.081Z,6.63
2023-04-23T12:23:11.711Z,6.85
2023-04-23T12:25:41.494Z,6.75
2023-04-23T12:28:08.620Z,7.32
2023-04-23T12:30:43.148Z,7.25
2023-04-23T12:33:11.330Z,7.32
2023-04-23T12:35:42.758Z,7.68
2023-04-23T12:38:25.135Z,7.13
2023-04-23T12:40:53.069Z,7.07
2023-04-23T12:43:19.506Z,6.72
2023-04-23T12:45:45.965Z,6.63
2023-04-23T12:48:13.605Z,6.30
2023-04-23T12:50:40.374Z,6.53
2023-04-23T12:53:06.879Z,7.00
2023-04-23T12:55:33.427Z,6.93
2023-04-23T12:58:00.345Z,6.53
2023-04-23T13:00:27.175Z,7.10
2023-04-23T13:02:55.629Z,6.30
2023-04-23T13:05:23.962Z,5.88
2023-04-23T13:07:50.649Z,5.70
2023-04-23T13:10:17.136Z,5.75
2023-04-23T13:12:43.644Z,5.85
2023-04-23T13:15:12.845Z,6.18
2023-04-23T13:17:39.350Z,5.90
2023-04-23T13:20:06.863Z,6.18
2023-04-23T13:22:33.421Z,5.28
2023-04-23T13:25:00.033Z,7.10
2023-04-23T13:27:28.415Z,5.95
2023-04-23T13:29:55.762Z,5.85
2023-04-23T13:32:23.685Z,5.32
2023-04-23T13:34:50.411Z,5.63
2023-04-23T13:37:16.984Z,5.38
2023-04-23T13:39:43.735Z,5.15
2023-04-23T13:42:10.555Z,5.60
2023-04-23T13:44:37.058Z,6.03
2023-04-23T13:47:04.018Z,5.75
2023-04-23T13:49:30.466Z,5.25
2023-04-23T13:52:01.074Z,6.07
2023-04-23T13:54:27.926Z,5.53
2023-04-23T13:56:55.651Z,7.30
2023-04-23T13:59:22.195Z,6.97
2023-04-23T14:01:51.855Z,6.50
2023-04-23T14:04:19.157Z,5.97
2023-04-23T14:06:45.734Z,6.10
2023-04-23T14:09:12.177Z,6.82
2023-04-23T14:11:40.486Z,7.13
2023-04-23T14:14:07.560Z,6.82
2023-04-23T14:16:34.093Z,6.70
2023-04-23T14:19:00.618Z,6.78
2023-04-23T14:21:27.446Z,6.20
2023-04-23T14:24:09.088Z,6.50
2023-04-23T14:26:47.835Z,6.30
2023-04-23T14:29:18.447Z,6.35
2023-04-23T14:31:44.890Z,6.43
2023-04-23T14:34:11.702Z,6.80
2023-04-23T14:36:38.141Z,6.40
2023-04-23T14:39:07.883Z,6.60
2023-04-23T14:41:34.631Z,6.50
2023-04-23T14:44:01.437Z,6.00
2023-04-23T14:46:28.628Z,7.10
2023-04-23T14:48:55.685Z,6.88
2023-04-23T14:51:22.227Z,6.88
2023-04-23T14:53:48.681Z,6.97
2023-04-23T14:56:15.075Z,7.78
2023-04-23T14:58:41.939Z,6.72
2023-04-23T15:01:08.780Z,6.90
2023-04-23T15:03:36.588Z,6.90
2023-04-23T15:06:07.048Z,7.68
2023-04-23T15:08:33.665Z,7.47
2023-04-23T15:11:00.226Z,7.00
2023-04-23T15:13:31.279Z,7.20
2023-04-23T15:16:02.953Z,7.20
2023-04-23T15:18:29.421Z,6.75
2023-04-23T15:20:55.939Z,6.55
2023-04-23T15:23:24.112Z,6.30
2023-04-23T15:25:51.094Z,6.28
2023-04-23T15:28:17.905Z,6.43
2023-04-23T15:30:44.930Z,6.88
2023-04-23T15:33:11.486Z,6.40
2023-04-23T15:35:37.831Z,6.57
2023-04-23T15:38:04.213Z,7.05
2023-04-23T15:40:30.637Z,7.22
2023-04-23T15:42:57.029Z,7.20
2023-04-23T15:45:23.390Z,7.40
2023-04-23T15:47:51.426Z,7.93
2023-04-23T15:50:22.364Z,7.80
2023-04-23T15:52:50.350Z,7.82
2023-04-23T15:55:17.633Z,7.30
2023-04-23T15:57:43.985Z,7.22
2023-04-23T16:00:10.944Z,6.93
2023-04-23T16:02:37.867Z,6.68
2023-04-23T16:05:05.182Z,7.53
2023-04-23T16:07:31.602Z,7.30
2023-04-23T16:09:57.970Z,7.05
2023-04-23T16:12:24.436Z,7.13
2023-04-23T16:14:50.815Z,6.82
2023-04-23T16:17:17.449Z,6.82
2023-04-23T16:19:44.036Z,7.07
2023-04-23T16:22:10.631Z,6.38
2023-04-23T16:24:37.006Z,7.05
2023-04-23T16:27:06.240Z,6.90
2023-04-23T16:29:32.780Z,6.93
2023-04-23T16:31:59.162Z,7.30
2023-04-23T16:34:25.731Z,7.38
2023-04-23T16:36:52.156Z,7.32
2023-04-23T16:39:18.542Z,6.93
2023-04-23T16:41:45.034Z,7.20
2023-04-23T16:44:11.495Z,6.90
2023-04-23T16:46:38.012Z,7.00
2023-04-23T16:49:04.607Z,6.65
2023-04-23T16:51:32.235Z,6.95
2023-04-23T16:53:58.807Z,6.38
2023-04-23T16:56:25.523Z,6.65
2023-04-23T16:58:52.092Z,6.90
2023-04-23T17:01:18.710Z,7.00
2023-04-23T17:03:45.912Z,6.95
2023-04-23T17:06:20.238Z,6.97
2023-04-23T17:08:46.638Z,7.00
2023-04-23T17:11:13.141Z,7.28
2023-04-23T17:13:39.529Z,7.65
2023-04-23T17:16:06.024Z,7.25
2023-04-23T17:18:32.483Z,6.85
2023-04-23T17:20:58.950Z,7.90
2023-04-23T17:23:25.380Z,7.70
2023-04-23T17:25:51.956Z,7.40
2023-04-23T17:28:20.124Z,8.50
2023-04-23T17:30:50.217Z,9.00
2023-04-23T17:33:21.067Z,7.60
2023-04-23T17:35:51.932Z,7.35
2023-04-23T17:38:21.517Z,8.15
2023-04-23T17:40:49.552Z,7.32
2023-04-23T17:43:16.704Z,7.35
2023-04-23T17:45:43.498Z,7.85
2023-04-23T17:48:09.910Z,8.75
2023-04-23T17:50:36.497Z,9.23
2023-04-23T17:53:03.703Z,8.65
2023-04-23T17:55:32.878Z,8.90
2023-04-23T17:58:05.555Z,8.82
2023-04-23T18:00:42.136Z,9.25
2023-04-23T18:03:09.794Z,9.23
2023-04-23T18:05:36.438Z,9.23
2023-04-23T18:08:03.364Z,9.02
2023-04-23T18:10:29.953Z,8.98
2023-04-23T18:12:56.574Z,9.35
2023-04-23T18:15:23.077Z,9.55
2023-04-23T18:17:50.345Z,8.48
2023-04-23T18:20:16.790Z,19.77
2023-04-23T18:22:44.353Z,17.52
2023-04-23T18:25:11.543Z,9.02
2023-04-23T18:27:38.541Z,9.27
2023-04-23T18:30:05.898Z,9.35
2023-04-23T18:35:04.101Z,12.93
2023-04-23T18:37:37.642Z,14.70
2023-04-23T18:40:05.771Z,9.70
2023-04-23T18:42:32.218Z,10.02
2023-04-23T18:44:58.566Z,9.95
2023-04-23T18:47:29.446Z,10.20
2023-04-23T18:50:00.217Z,9.20
2023-04-23T18:52:26.657Z,9.38
2023-04-23T18:54:53.135Z,8.60
2023-04-23T18:57:19.535Z,9.43
2023-04-23T18:59:45.926Z,9.60
2023-04-23T19:02:18.778Z,10.18
2023-04-23T19:04:51.351Z,9.43
2023-04-23T19:07:17.836Z,9.55
2023-04-23T19:09:44.472Z,11.77
2023-04-23T19:12:11.071Z,20.38
2023-04-23T19:14:37.633Z,11.32
2023-04-23T19:17:04.033Z,14.77
2023-04-23T19:19:32.016Z,9.93
2023-04-23T19:21:58.412Z,9.77
2023-04-23T19:24:24.766Z,9.57
2023-04-23T19:26:51.396Z,9.30
2023-04-23T19:29:17.848Z,9.45
2023-04-23T19:31:44.262Z,9.25
2023-04-23T19:34:10.737Z,8.70
2023-04-23T19:36:37.127Z,9.05
2023-04-23T19:39:03.801Z,9.10
2023-04-23T19:41:30.378Z,9.05
2023-04-23T19:43:56.767Z,8.90
2023-04-23T19:46:23.181Z,9.45
2023-04-23T19:48:49.591Z,10.48
2023-04-23T19:51:17.132Z,10.98
2023-04-23T19:53:43.606Z,9.60
2023-04-23T19:56:13.128Z,10.45
2023-04-23T19:58:40.438Z,9.87
2023-04-23T20:01:07.884Z,9.50
2023-04-23T20:03:34.775Z,10.30
2023-04-23T20:06:01.295Z,9.90
2023-04-23T20:08:29.656Z,9.90
2023-04-23T20:10:56.572Z,10.27
2023-04-23T20:13:23.897Z,9.50
2023-04-23T20:15:50.456Z,9.50
2023-04-23T20:18:18.246Z,9.80
2023-04-23T20:20:44.631Z,9.65
2023-04-23T20:23:11.021Z,9.48
2023-04-23T20:25:37.441Z,10.25
2023-04-23T20:28:03.874Z,10.10
2023-04-23T20:30:30.316Z,11.43
2023-04-23T20:32:58.191Z,11.60
2023-04-23T20:35:24.703Z,12.32
2023-04-23T20:37:52.892Z,11.60
2023-04-23T20:40:19.551Z,12.80
2023-04-23T20:42:47.157Z,12.25
2023-04-23T20:45:14.364Z,12.73
2023-04-23T20:47:41.421Z,12.73
2023-04-23T20:50:08.442Z,13.00
2023-04-23T20:52:35.250Z,13.30
2023-04-23T20:55:01.922Z,12.25
2023-04-23T20:57:28.314Z,12.27
2023-04-23T20:59:54.729Z,12.10
2023-04-23T21:02:21.233Z,11.23
2023-04-23T21:04:47.668Z,12.60
2023-04-23T21:07:14.059Z,13.60
2023-04-23T21:09:40.772Z,11.95
2023-04-23T21:12:07.415Z,12.30
2023-04-23T21:14:33.987Z,13.48
2023-04-23T21:17:00.472Z,12.35
2023-04-23T21:19:26.855Z,13.38
2023-04-23T21:21:53.243Z,12.02
2023-04-23T21:24:19.604Z,12.75
2023-04-23T21:26:46.618Z,15.00
2023-04-23T21:29:13.026Z,13.98
2023-04-23T21:31:46.824Z,13.93
2023-04-23T21:34:16.537Z,13.20
2023-04-23T21:36:44.714Z,13.27
2023-04-23T21:39:13.165Z,14.05
2023-04-23T21:41:40.151Z,14.27
2023-04-23T21:44:06.668Z,13.80
2023-04-23T21:46:33.327Z,14.18
2023-04-23T21:48:59.824Z,14.60
2023-04-23T21:51:26.285Z,13.93
2023-04-23T21:53:52.673Z,14.02
2023-04-23T21:56:19.156Z,12.65
2023-04-23T21:58:45.838Z,13.48
2023-04-23T22:01:12.385Z,13.38
2023-04-23T22:03:42.410Z,14.75
2023-04-23T22:06:09.764Z,14.15
2023-04-23T22:08:40.284Z,13.10
2023-04-23T22:11:08.226Z,13.55
2023-04-23T22:13:35.595Z,14.65
2023-04-23T22:16:04.989Z,13.90
2023-04-23T22:18:33.132Z,13.75
2023-04-23T22:20:59.558Z,13.98
2023-04-23T22:23:25.965Z,14.40
2023-04-23T22:25:52.402Z,13.88
2023-04-23T22:28:18.928Z,13.77
2023-04-23T22:30:45.348Z,13.38
2023-04-23T22:33:11.864Z,13.50
2023-04-23T22:35:38.330Z,14.10
2023-04-23T22:38:05.215Z,13.88
2023-04-23T22:40:31.643Z,12.93
2023-04-23T22:42:58.055Z,12.35
2023-04-23T22:45:24.440Z,10.82
2023-04-23T22:47:51.024Z,9.13
2023-04-23T22:50:17.447Z,7.53
2023-04-23T22:52:44.461Z,6.57
2023-04-23T22:55:11.697Z,6.60
2023-04-23T22:57:38.326Z,5.93
2023-04-23T23:00:07.676Z,6.40
2023-04-23T23:02:34.222Z,5.78
2023-04-23T23:05:00.963Z,5.95
2023-04-23T23:07:27.422Z,5.80
2023-04-23T23:09:53.798Z,6.13
2023-04-23T23:12:20.308Z,6.20
2023-04-23T23:14:46.732Z,5.97
2023-04-23T23:17:13.135Z,5.65
2023-04-23T23:19:39.553Z,5.85
2023-04-23T23:22:06.164Z,5.90
2023-04-23T23:24:32.629Z,5.75
2023-04-23T23:26:59.004Z,5.72
2023-04-23T23:29:25.351Z,5.63
2023-04-23T23:31:51.815Z,5.40
2023-04-23T23:34:18.250Z,5.68
2023-04-23T23:36:45.707Z,5.50
2023-04-23T23:39:13.224Z,4.80
2023-04-23T23:41:39.621Z,4.80
2023-04-23T23:44:06.024Z,4.93
2023-04-23T23:46:32.453Z,4.72
2023-04-23T23:48:58.922Z,4.90
2023-04-23T23:51:25.631Z,5.13
2023-04-23T23:53:52.001Z,4.82
2023-04-23T23:56:18.494Z,4.30
2023-04-23T23:58:44.981Z,4.40
